Terminal Aerodrome Forecast
Issued by NWS King Salmon, AK

Home | Current Version | Previous Version | Text Only | Print | Product List | Glossary On
Versions: 1 2 3 4 5 6 7 8 9 10 11 12 13 14
000
FTAK31 PANC 301738
TAFAKN
TAF
PAKN 301738Z 3018/0118 03015G25KT P6SM VCSH SCT050 BKN080
     FM302200 03015G25KT P6SM VCSH BKN050
     FM010500 03006KT P6SM VCSH SCT050 BKN080=

USA.gov is the U.S. government's official web portal to all federal, state and local government web resources and services.